sensor_id;sensor_type;location;lat;lon;timestamp;temperature;humidity
46898;DHT22;32646;50.958;6.258;2023-04-24T00:01:32;9.60;99.90
46898;DHT22;32646;50.958;6.258;2023-04-24T00:03:59;9.60;99.90
46898;DHT22;32646;50.958;6.258;2023-04-24T00:06:26;9.60;99.90
46898;DHT22;32646;50.958;6.258;2023-04-24T00:08:52;9.70;99.90
46898;DHT22;32646;50.958;6.258;2023-04-24T00:11:19;9.70;99.90
46898;DHT22;32646;50.958;6.258;2023-04-24T00:13:45;9.70;99.90
46898;DHT22;32646;50.958;6.258;2023-04-24T00:16:12;9.60;99.90
46898;DHT22;32646;50.958;6.258;2023-04-24T00:18:38;9.70;99.90
46898;DHT22;32646;50.958;6.258;2023-04-24T00:21:05;9.70;99.90
46898;DHT22;32646;50.958;6.258;2023-04-24T00:23:31;9.60;99.90
46898;DHT22;32646;50.958;6.258;2023-04-24T00:25:58;9.60;99.90
46898;DHT22;32646;50.958;6.258;2023-04-24T00:28:25;9.60;99.90
46898;DHT22;32646;50.958;6.258;2023-04-24T00:30:51;9.60;99.90
46898;DHT22;32646;50.958;6.258;2023-04-24T00:33:18;9.50;99.90
46898;DHT22;32646;50.958;6.258;2023-04-24T00:35:44;9.40;99.90
46898;DHT22;32646;50.958;6.258;2023-04-24T00:38:11;9.40;99.90
46898;DHT22;32646;50.958;6.258;2023-04-24T00:40:37;9.40;99.90
46898;DHT22;32646;50.958;6.258;2023-04-24T00:43:04;9.40;99.90
46898;DHT22;32646;50.958;6.258;2023-04-24T00:45:30;9.30;99.90
46898;DHT22;32646;50.958;6.258;2023-04-24T00:47:57;9.20;99.90
46898;DHT22;32646;50.958;6.258;2023-04-24T00:50:24;9.10;99.90
46898;DHT22;32646;50.958;6.258;2023-04-24T00:52:51;9.00;99.90
46898;DHT22;32646;50.958;6.258;2023-04-24T00:55:19;9.10;99.90
46898;DHT22;32646;50.958;6.258;2023-04-24T00:57:46;9.20;99.90
46898;DHT22;32646;50.958;6.258;2023-04-24T01:00:15;9.20;99.90
46898;DHT22;32646;50.958;6.258;2023-04-24T01:02:43;9.20;99.90
46898;DHT22;32646;50.958;6.258;2023-04-24T01:05:12;9.20;99.90
46898;DHT22;32646;50.958;6.258;2023-04-24T01:07:40;9.20;99.90
46898;DHT22;32646;50.958;6.258;2023-04-24T01:10:07;9.20;99.90
46898;DHT22;32646;50.958;6.258;2023-04-24T01:12:35;9.30;99.90
46898;DHT22;32646;50.958;6.258;2023-04-24T01:15:01;9.30;99.90
46898;DHT22;32646;50.958;6.258;2023-04-24T01:17:28;9.30;99.90
46898;DHT22;32646;50.958;6.258;2023-04-24T01:19:55;9.30;99.90
46898;DHT22;32646;50.958;6.258;2023-04-24T01:22:21;9.20;99.90
46898;DHT22;32646;50.958;6.258;2023-04-24T01:24:48;9.10;99.90
46898;DHT22;32646;50.958;6.258;2023-04-24T01:27:15;9.10;99.90
46898;DHT22;32646;50.958;6.258;2023-04-24T01:29:42;9.10;99.90
46898;DHT22;32646;50.958;6.258;2023-04-24T01:32:09;9.20;99.90
46898;DHT22;32646;50.958;6.258;2023-04-24T01:34:35;9.20;99.90
46898;DHT22;32646;50.958;6.258;2023-04-24T01:37:02;9.20;99.90
46898;DHT22;32646;50.958;6.258;2023-04-24T01:39:28;9.20;99.90
46898;DHT22;32646;50.958;6.258;2023-04-24T01:41:56;9.20;99.90
46898;DHT22;32646;50.958;6.258;2023-04-24T01:44:23;9.20;99.90
46898;DHT22;32646;50.958;6.258;2023-04-24T01:46:50;9.20;99.90
46898;DHT22;32646;50.958;6.258;2023-04-24T01:49:17;9.20;99.90
46898;DHT22;32646;50.958;6.258;2023-04-24T01:51:43;9.20;99.90
46898;DHT22;32646;50.958;6.258;2023-04-24T01:54:10;9.30;99.90
46898;DHT22;32646;50.958;6.258;2023-04-24T01:56:40;9.20;99.90
46898;DHT22;32646;50.958;6.258;2023-04-24T01:59:10;9.30;99.90
46898;DHT22;32646;50.958;6.258;2023-04-24T02:01:37;9.30;99.90
46898;DHT22;32646;50.958;6.258;2023-04-24T02:04:05;9.20;99.90
46898;DHT22;32646;50.958;6.258;2023-04-24T02:06:33;9.20;99.90
46898;DHT22;32646;50.958;6.258;2023-04-24T02:09:00;9.30;99.90
46898;DHT22;32646;50.958;6.258;2023-04-24T02:11:26;9.30;99.90
46898;DHT22;32646;50.958;6.258;2023-04-24T02:13:53;9.30;99.90
46898;DHT22;32646;50.958;6.258;2023-04-24T02:16:20;9.20;99.90
46898;DHT22;32646;50.958;6.258;2023-04-24T02:18:46;9.30;99.90
46898;DHT22;32646;50.958;6.258;2023-04-24T02:21:13;9.30;99.90
46898;DHT22;32646;50.958;6.258;2023-04-24T02:23:39;9.30;99.90
46898;DHT22;32646;50.958;6.258;2023-04-24T02:26:06;9.30;99.90
46898;DHT22;32646;50.958;6.258;2023-04-24T02:28:33;9.30;99.90
46898;DHT22;32646;50.958;6.258;2023-04-24T02:30:59;9.30;99.90
46898;DHT22;32646;50.958;6.258;2023-04-24T02:33:26;9.30;99.90
46898;DHT22;32646;50.958;6.258;2023-04-24T02:35:52;9.20;99.90
46898;DHT22;32646;50.958;6.258;2023-04-24T02:38:19;9.20;99.90
46898;DHT22;32646;50.958;6.258;2023-04-24T02:40:45;9.20;99.90
46898;DHT22;32646;50.958;6.258;2023-04-24T02:43:12;9.20;99.90
46898;DHT22;32646;50.958;6.258;2023-04-24T02:45:38;9.20;99.90
46898;DHT22;32646;50.958;6.258;2023-04-24T02:48:05;9.20;99.90
46898;DHT22;32646;50.958;6.258;2023-04-24T02:50:31;9.20;99.90
46898;DHT22;32646;50.958;6.258;2023-04-24T02:52:58;9.20;99.90
46898;DHT22;32646;50.958;6.258;2023-04-24T02:55:24;9.20;99.90
46898;DHT22;32646;50.958;6.258;2023-04-24T02:57:51;9.20;99.90
46898;DHT22;32646;50.958;6.258;2023-04-24T03:00:18;9.10;99.90
46898;DHT22;32646;50.958;6.258;2023-04-24T03:02:44;9.20;99.90
46898;DHT22;32646;50.958;6.258;2023-04-24T03:05:11;9.20;99.90
46898;DHT22;32646;50.958;6.258;2023-04-24T03:07:37;9.10;99.90
46898;DHT22;32646;50.958;6.258;2023-04-24T03:10:05;9.20;99.90
46898;DHT22;32646;50.958;6.258;2023-04-24T03:12:32;9.10;99.90
46898;DHT22;32646;50.958;6.258;2023-04-24T03:14:58;9.10;99.90
46898;DHT22;32646;50.958;6.258;2023-04-24T03:17:25;9.10;99.90
46898;DHT22;32646;50.958;6.258;2023-04-24T03:19:51;9.20;99.90
46898;DHT22;32646;50.958;6.258;2023-04-24T03:22:18;9.10;99.90
46898;DHT22;32646;50.958;6.258;2023-04-24T03:24:44;9.00;99.90
46898;DHT22;32646;50.958;6.258;2023-04-24T03:27:11;8.80;99.90
46898;DHT22;32646;50.958;6.258;2023-04-24T03:29:37;8.70;99.90
46898;DHT22;32646;50.958;6.258;2023-04-24T03:32:04;8.60;99.90
46898;DHT22;32646;50.958;6.258;2023-04-24T03:34:31;8.60;99.90
46898;DHT22;32646;50.958;6.258;2023-04-24T03:36:57;8.70;99.90
46898;DHT22;32646;50.958;6.258;2023-04-24T03:39:24;8.70;99.90
46898;DHT22;32646;50.958;6.258;2023-04-24T03:41:50;8.70;99.90
46898;DHT22;32646;50.958;6.258;2023-04-24T03:44:16;8.70;99.90
46898;DHT22;32646;50.958;6.258;2023-04-24T03:46:43;8.80;99.90
46898;DHT22;32646;50.958;6.258;2023-04-24T03:49:09;8.80;99.90
46898;DHT22;32646;50.958;6.258;2023-04-24T03:51:36;8.80;99.90
46898;DHT22;32646;50.958;6.258;2023-04-24T03:54:03;8.70;99.90
46898;DHT22;32646;50.958;6.258;2023-04-24T03:56:29;8.70;99.90
46898;DHT22;32646;50.958;6.258;2023-04-24T03:58:56;8.80;99.90
46898;DHT22;32646;50.958;6.258;2023-04-24T04:01:22;8.70;99.90
46898;DHT22;32646;50.958;6.258;2023-04-24T04:03:49;8.60;99.90
46898;DHT22;32646;50.958;6.258;2023-04-24T04:06:16;8.60;99.90
46898;DHT22;32646;50.958;6.258;2023-04-24T04:08:42;8.60;99.90
46898;DHT22;32646;50.958;6.258;2023-04-24T04:11:09;8.50;99.90
46898;DHT22;32646;50.958;6.258;2023-04-24T04:13:35;8.60;99.90
46898;DHT22;32646;50.958;6.258;2023-04-24T04:16:02;8.60;99.90
46898;DHT22;32646;50.958;6.258;2023-04-24T04:18:28;8.60;99.90
46898;DHT22;32646;50.958;6.258;2023-04-24T04:20:55;8.50;99.90
46898;DHT22;32646;50.958;6.258;2023-04-24T04:23:21;8.50;99.90
46898;DHT22;32646;50.958;6.258;2023-04-24T04:25:48;8.50;99.90
46898;DHT22;32646;50.958;6.258;2023-04-24T04:28:15;8.50;99.90
46898;DHT22;32646;50.958;6.258;2023-04-24T04:30:41;8.60;99.90
46898;DHT22;32646;50.958;6.258;2023-04-24T04:33:08;8.50;99.90
46898;DHT22;32646;50.958;6.258;2023-04-24T04:35:34;8.50;99.90
46898;DHT22;32646;50.958;6.258;2023-04-24T04:38:01;8.50;99.90
46898;DHT22;32646;50.958;6.258;2023-04-24T04:40:27;8.60;99.90
46898;DHT22;32646;50.958;6.258;2023-04-24T04:42:54;8.60;99.90
46898;DHT22;32646;50.958;6.258;2023-04-24T04:45:20;8.60;99.90
46898;DHT22;32646;50.958;6.258;2023-04-24T04:47:47;8.60;99.90
46898;DHT22;32646;50.958;6.258;2023-04-24T04:50:14;8.60;99.90
46898;DHT22;32646;50.958;6.258;2023-04-24T04:52:41;8.70;99.90
46898;DHT22;32646;50.958;6.258;2023-04-24T04:55:07;8.70;99.90
46898;DHT22;32646;50.958;6.258;2023-04-24T04:57:34;8.70;99.90
46898;DHT22;32646;50.958;6.258;2023-04-24T05:00:00;8.60;99.90
46898;DHT22;32646;50.958;6.258;2023-04-24T05:02:27;8.60;99.90
46898;DHT22;32646;50.958;6.258;2023-04-24T05:04:54;8.60;99.90
46898;DHT22;32646;50.958;6.258;2023-04-24T05:07:21;8.60;99.90
46898;DHT22;32646;50.958;6.258;2023-04-24T05:09:47;8.60;99.90
46898;DHT22;32646;50.958;6.258;2023-04-24T05:12:14;8.50;99.90
46898;DHT22;32646;50.958;6.258;2023-04-24T05:14:40;8.50;99.90
46898;DHT22;32646;50.958;6.258;2023-04-24T05:17:07;8.50;99.90
46898;DHT22;32646;50.958;6.258;2023-04-24T05:19:34;8.50;99.90
46898;DHT22;32646;50.958;6.258;2023-04-24T05:22:00;8.50;99.90
46898;DHT22;32646;50.958;6.258;2023-04-24T05:24:27;8.40;99.90
46898;DHT22;32646;50.958;6.258;2023-04-24T05:26:53;8.30;99.90
46898;DHT22;32646;50.958;6.258;2023-04-24T05:29:20;8.40;99.90
46898;DHT22;32646;50.958;6.258;2023-04-24T05:31:46;8.50;99.90
46898;DHT22;32646;50.958;6.258;2023-04-24T05:34:13;8.50;99.90
46898;DHT22;32646;50.958;6.258;2023-04-24T05:36:40;8.50;99.90
46898;DHT22;32646;50.958;6.258;2023-04-24T05:39:06;8.30;99.90
46898;DHT22;32646;50.958;6.258;2023-04-24T05:41:34;8.10;99.90
46898;DHT22;32646;50.958;6.258;2023-04-24T05:44:00;7.90;99.90
46898;DHT22;32646;50.958;6.258;2023-04-24T05:46:27;7.70;99.90
46898;DHT22;32646;50.958;6.258;2023-04-24T05:48:53;7.60;99.90
46898;DHT22;32646;50.958;6.258;2023-04-24T05:51:20;7.60;99.90
46898;DHT22;32646;50.958;6.258;2023-04-24T05:53:46;7.60;99.90
46898;DHT22;32646;50.958;6.258;2023-04-24T05:56:13;7.60;99.90
46898;DHT22;32646;50.958;6.258;2023-04-24T05:58:40;7.60;99.90
46898;DHT22;32646;50.958;6.258;2023-04-24T06:01:06;7.60;99.90
46898;DHT22;32646;50.958;6.258;2023-04-24T06:03:33;7.60;99.90
46898;DHT22;32646;50.958;6.258;2023-04-24T06:06:00;7.60;99.90
46898;DHT22;32646;50.958;6.258;2023-04-24T06:08:26;7.60;99.90
46898;DHT22;32646;50.958;6.258;2023-04-24T06:10:53;7.60;99.90
46898;DHT22;32646;50.958;6.258;2023-04-24T06:13:19;7.70;99.90
46898;DHT22;32646;50.958;6.258;2023-04-24T06:15:46;7.60;99.90
46898;DHT22;32646;50.958;6.258;2023-04-24T06:18:12;7.60;99.90
46898;DHT22;32646;50.958;6.258;2023-04-24T06:20:39;7.70;99.90
46898;DHT22;32646;50.958;6.258;2023-04-24T06:23:05;7.70;99.90
46898;DHT22;32646;50.958;6.258;2023-04-24T06:25:32;7.60;99.90
46898;DHT22;32646;50.958;6.258;2023-04-24T06:27:59;7.70;99.90
46898;DHT22;32646;50.958;6.258;2023-04-24T06:30:25;7.60;99.90
46898;DHT22;32646;50.958;6.258;2023-04-24T06:32:52;7.60;99.90
46898;DHT22;32646;50.958;6.258;2023-04-24T06:35:19;7.50;99.90
46898;DHT22;32646;50.958;6.258;2023-04-24T06:37:45;7.50;99.90
46898;DHT22;32646;50.958;6.258;2023-04-24T06:40:12;7.60;99.90
46898;DHT22;32646;50.958;6.258;2023-04-24T06:42:39;7.60;99.90
46898;DHT22;32646;50.958;6.258;2023-04-24T06:45:06;7.60;99.90
46898;DHT22;32646;50.958;6.258;2023-04-24T06:47:32;7.60;99.90
46898;DHT22;32646;50.958;6.258;2023-04-24T06:49:59;7.60;99.90
46898;DHT22;32646;50.958;6.258;2023-04-24T06:52:26;7.50;99.90
46898;DHT22;32646;50.958;6.258;2023-04-24T06:54:52;7.40;99.90
46898;DHT22;32646;50.958;6.258;2023-04-24T06:57:25;7.40;99.90
46898;DHT22;32646;50.958;6.258;2023-04-24T06:59:52;7.40;99.90
46898;DHT22;32646;50.958;6.258;2023-04-24T07:02:18;7.40;99.90
46898;DHT22;32646;50.958;6.258;2023-04-24T07:04:45;7.40;99.90
46898;DHT22;32646;50.958;6.258;2023-04-24T07:07:12;7.30;99.90
46898;DHT22;32646;50.958;6.258;2023-04-24T07:09:38;7.20;99.90
46898;DHT22;32646;50.958;6.258;2023-04-24T07:12:05;7.20;99.90
46898;DHT22;32646;50.958;6.258;2023-04-24T07:14:32;7.20;99.90
46898;DHT22;32646;50.958;6.258;2023-04-24T07:16:58;7.10;99.90
46898;DHT22;32646;50.958;6.258;2023-04-24T07:19:25;7.10;99.90
46898;DHT22;32646;50.958;6.258;2023-04-24T07:21:51;7.10;99.90
46898;DHT22;32646;50.958;6.258;2023-04-24T07:24:18;7.00;99.90
46898;DHT22;32646;50.958;6.258;2023-04-24T07:26:47;7.00;99.90
46898;DHT22;32646;50.958;6.258;2023-04-24T07:29:14;7.00;99.90
46898;DHT22;32646;50.958;6.258;2023-04-24T07:31:40;7.00;99.90
46898;DHT22;32646;50.958;6.258;2023-04-24T07:34:07;7.00;99.90
46898;DHT22;32646;50.958;6.258;2023-04-24T07:36:34;7.00;99.90
46898;DHT22;32646;50.958;6.258;2023-04-24T07:39:00;6.90;99.90
46898;DHT22;32646;50.958;6.258;2023-04-24T07:41:27;6.90;99.90
46898;DHT22;32646;50.958;6.258;2023-04-24T07:43:53;6.90;99.90
46898;DHT22;32646;50.958;6.258;2023-04-24T07:46:20;6.80;99.90
46898;DHT22;32646;50.958;6.258;2023-04-24T07:48:47;6.70;99.90
46898;DHT22;32646;50.958;6.258;2023-04-24T07:51:16;6.70;99.90
46898;DHT22;32646;50.958;6.258;2023-04-24T07:53:43;6.60;99.90
46898;DHT22;32646;50.958;6.258;2023-04-24T07:56:10;6.60;99.90
46898;DHT22;32646;50.958;6.258;2023-04-24T07:58:36;6.50;99.90
46898;DHT22;32646;50.958;6.258;2023-04-24T08:01:03;6.60;99.90
46898;DHT22;32646;50.958;6.258;2023-04-24T08:03:30;6.50;99.90
46898;DHT22;32646;50.958;6.258;2023-04-24T08:05:57;6.50;99.90
46898;DHT22;32646;50.958;6.258;2023-04-24T08:08:24;6.60;99.90
46898;DHT22;32646;50.958;6.258;2023-04-24T08:10:51;6.60;99.90
46898;DHT22;32646;50.958;6.258;2023-04-24T08:13:17;6.60;99.90
46898;DHT22;32646;50.958;6.258;2023-04-24T08:15:44;6.70;99.90
46898;DHT22;32646;50.958;6.258;2023-04-24T08:18:11;6.70;99.90
46898;DHT22;32646;50.958;6.258;2023-04-24T08:20:37;6.80;99.90
46898;DHT22;32646;50.958;6.258;2023-04-24T08:23:04;6.80;99.90
46898;DHT22;32646;50.958;6.258;2023-04-24T08:25:30;6.80;99.90
46898;DHT22;32646;50.958;6.258;2023-04-24T08:27:57;6.80;99.90
46898;DHT22;32646;50.958;6.258;2023-04-24T08:30:23;6.90;99.90
46898;DHT22;32646;50.958;6.258;2023-04-24T08:32:50;7.00;99.90
46898;DHT22;32646;50.958;6.258;2023-04-24T08:35:16;7.00;99.90
46898;DHT22;32646;50.958;6.258;2023-04-24T08:37:43;7.00;99.90
46898;DHT22;32646;50.958;6.258;2023-04-24T08:40:13;7.00;99.90
46898;DHT22;32646;50.958;6.258;2023-04-24T08:42:44;7.00;99.90
46898;DHT22;32646;50.958;6.258;2023-04-24T08:45:12;7.00;99.90
46898;DHT22;32646;50.958;6.258;2023-04-24T08:47:40;7.00;99.90
46898;DHT22;32646;50.958;6.258;2023-04-24T08:50:08;7.10;99.90
46898;DHT22;32646;50.958;6.258;2023-04-24T08:52:35;7.10;99.90
46898;DHT22;32646;50.958;6.258;2023-04-24T08:55:02;7.10;99.90
46898;DHT22;32646;50.958;6.258;2023-04-24T08:57:28;7.20;99.90
46898;DHT22;32646;50.958;6.258;2023-04-24T08:59:56;7.20;99.90
46898;DHT22;32646;50.958;6.258;2023-04-24T09:02:25;7.20;99.90
46898;DHT22;32646;50.958;6.258;2023-04-24T09:04:52;7.30;99.90
46898;DHT22;32646;50.958;6.258;2023-04-24T09:07:20;7.30;99.90
46898;DHT22;32646;50.958;6.258;2023-04-24T09:09:48;7.30;99.90
46898;DHT22;32646;50.958;6.258;2023-04-24T09:12:17;7.40;99.90
46898;DHT22;32646;50.958;6.258;2023-04-24T09:14:44;7.40;99.90
46898;DHT22;32646;50.958;6.258;2023-04-24T09:17:12;7.60;99.90
46898;DHT22;32646;50.958;6.258;2023-04-24T09:19:39;7.60;99.90
46898;DHT22;32646;50.958;6.258;2023-04-24T09:22:07;7.70;99.90
46898;DHT22;32646;50.958;6.258;2023-04-24T09:24:34;7.80;99.90
46898;DHT22;32646;50.958;6.258;2023-04-24T09:27:01;7.90;99.90
46898;DHT22;32646;50.958;6.258;2023-04-24T09:29:28;8.00;99.90
46898;DHT22;32646;50.958;6.258;2023-04-24T09:31:54;8.10;99.90
46898;DHT22;32646;50.958;6.258;2023-04-24T09:34:26;8.10;99.90
46898;DHT22;32646;50.958;6.258;2023-04-24T09:36:53;8.30;99.90
46898;DHT22;32646;50.958;6.258;2023-04-24T09:39:20;8.50;99.90
46898;DHT22;32646;50.958;6.258;2023-04-24T09:41:49;8.50;99.90
46898;DHT22;32646;50.958;6.258;2023-04-24T09:44:18;8.60;99.90
46898;DHT22;32646;50.958;6.258;2023-04-24T09:46:48;8.70;99.90
46898;DHT22;32646;50.958;6.258;2023-04-24T09:49:16;8.70;99.90
46898;DHT22;32646;50.958;6.258;2023-04-24T09:51:46;8.60;99.90
46898;DHT22;32646;50.958;6.258;2023-04-24T09:54:17;8.70;99.90
46898;DHT22;32646;50.958;6.258;2023-04-24T09:56:46;8.70;99.90
46898;DHT22;32646;50.958;6.258;2023-04-24T09:59:14;8.80;99.90
46898;DHT22;32646;50.958;6.258;2023-04-24T10:01:41;8.80;99.90
46898;DHT22;32646;50.958;6.258;2023-04-24T10:04:16;8.70;99.90
46898;DHT22;32646;50.958;6.258;2023-04-24T10:06:43;8.80;99.90
46898;DHT22;32646;50.958;6.258;2023-04-24T10:09:09;9.00;99.90
46898;DHT22;32646;50.958;6.258;2023-04-24T10:11:37;9.10;99.90
46898;DHT22;32646;50.958;6.258;2023-04-24T10:14:04;9.20;99.90
46898;DHT22;32646;50.958;6.258;2023-04-24T10:16:31;9.10;99.90
46898;DHT22;32646;50.958;6.258;2023-04-24T10:18:59;9.00;99.90
46898;DHT22;32646;50.958;6.258;2023-04-24T10:21:26;9.10;99.90
46898;DHT22;32646;50.958;6.258;2023-04-24T10:23:53;8.90;99.90
46898;DHT22;32646;50.958;6.258;2023-04-24T10:26:20;8.80;99.90
46898;DHT22;32646;50.958;6.258;2023-04-24T10:28:48;8.70;99.90
46898;DHT22;32646;50.958;6.258;2023-04-24T10:31:15;8.70;99.90
46898;DHT22;32646;50.958;6.258;2023-04-24T10:33:42;8.80;99.90
46898;DHT22;32646;50.958;6.258;2023-04-24T10:36:10;8.80;99.90
46898;DHT22;32646;50.958;6.258;2023-04-24T10:38:39;8.70;99.90
46898;DHT22;32646;50.958;6.258;2023-04-24T10:41:10;8.50;99.90
46898;DHT22;32646;50.958;6.258;2023-04-24T10:43:39;8.50;99.90
46898;DHT22;32646;50.958;6.258;2023-04-24T10:46:06;8.50;99.90
46898;DHT22;32646;50.958;6.258;2023-04-24T10:48:33;8.50;99.90
46898;DHT22;32646;50.958;6.258;2023-04-24T10:51:00;8.40;99.90
46898;DHT22;32646;50.958;6.258;2023-04-24T10:53:29;8.40;99.90
46898;DHT22;32646;50.958;6.258;2023-04-24T10:56:03;8.20;99.90
46898;DHT22;32646;50.958;6.258;2023-04-24T10:58:37;8.30;99.90
46898;DHT22;32646;50.958;6.258;2023-04-24T11:01:04;8.70;99.90
46898;DHT22;32646;50.958;6.258;2023-04-24T11:03:32;8.90;99.90
46898;DHT22;32646;50.958;6.258;2023-04-24T11:08:38;10.70;99.90
46898;DHT22;32646;50.958;6.258;2023-04-24T11:11:09;11.30;99.90
46898;DHT22;32646;50.958;6.258;2023-04-24T11:16:51;11.40;99.90
46898;DHT22;32646;50.958;6.258;2023-04-24T11:19:21;11.30;99.90
46898;DHT22;32646;50.958;6.258;2023-04-24T11:21:54;11.20;99.90
46898;DHT22;32646;50.958;6.258;2023-04-24T11:27:15;11.00;99.90
46898;DHT22;32646;50.958;6.258;2023-04-24T11:35:08;10.40;99.90
46898;DHT22;32646;50.958;6.258;2023-04-24T11:37:36;10.00;99.90
46898;DHT22;32646;50.958;6.258;2023-04-24T11:40:05;9.80;99.90
46898;DHT22;32646;50.958;6.258;2023-04-24T11:42:39;9.70;99.90
46898;DHT22;32646;50.958;6.258;2023-04-24T11:45:11;9.60;99.90
46898;DHT22;32646;50.958;6.258;2023-04-24T11:47:39;10.00;99.90
46898;DHT22;32646;50.958;6.258;2023-04-24T11:50:08;10.30;99.90
46898;DHT22;32646;50.958;6.258;2023-04-24T11:52:39;10.70;99.90
46898;DHT22;32646;50.958;6.258;2023-04-24T11:57:52;11.90;99.90
46898;DHT22;32646;50.958;6.258;2023-04-24T12:00:21;12.30;99.90
46898;DHT22;32646;50.958;6.258;2023-04-24T12:02:48;12.20;99.90
46898;DHT22;32646;50.958;6.258;2023-04-24T12:05:25;12.10;99.90
46898;DHT22;32646;50.958;6.258;2023-04-24T12:07:53;11.90;99.90
46898;DHT22;32646;50.958;6.258;2023-04-24T12:10:21;12.00;99.90
46898;DHT22;32646;50.958;6.258;2023-04-24T12:12:48;12.20;99.90
46898;DHT22;32646;50.958;6.258;2023-04-24T12:15:15;11.90;99.90
46898;DHT22;32646;50.958;6.258;2023-04-24T12:17:42;11.60;99.90
46898;DHT22;32646;50.958;6.258;2023-04-24T12:20:09;11.30;99.90
46898;DHT22;32646;50.958;6.258;2023-04-24T12:22:54;11.40;99.90
46898;DHT22;32646;50.958;6.258;2023-04-24T12:25:24;11.80;99.90
46898;DHT22;32646;50.958;6.258;2023-04-24T12:28:16;11.80;99.90
46898;DHT22;32646;50.958;6.258;2023-04-24T12:30:45;11.70;99.90
46898;DHT22;32646;50.958;6.258;2023-04-24T12:33:13;11.20;99.90
46898;DHT22;32646;50.958;6.258;2023-04-24T12:35:43;11.10;99.90
46898;DHT22;32646;50.958;6.258;2023-04-24T12:38:11;11.10;99.90
46898;DHT22;32646;50.958;6.258;2023-04-24T12:40:39;11.00;99.90
46898;DHT22;32646;50.958;6.258;2023-04-24T12:43:19;11.10;99.90
46898;DHT22;32646;50.958;6.258;2023-04-24T12:45:47;11.60;99.90
46898;DHT22;32646;50.958;6.258;2023-04-24T12:48:14;12.10;99.90
46898;DHT22;32646;50.958;6.258;2023-04-24T12:50:41;12.10;99.90
46898;DHT22;32646;50.958;6.258;2023-04-24T12:53:11;12.30;99.90
46898;DHT22;32646;50.958;6.258;2023-04-24T12:55:37;12.60;99.90
46898;DHT22;32646;50.958;6.258;2023-04-24T12:58:04;12.90;99.90
46898;DHT22;32646;50.958;6.258;2023-04-24T13:00:30;13.20;99.90
46898;DHT22;32646;50.958;6.258;2023-04-24T13:02:57;12.70;99.90
46898;DHT22;32646;50.958;6.258;2023-04-24T13:05:24;12.30;99.90
46898;DHT22;32646;50.958;6.258;2023-04-24T13:07:51;12.10;99.90
46898;DHT22;32646;50.958;6.258;2023-04-24T13:10:17;12.40;99.90
46898;DHT22;32646;50.958;6.258;2023-04-24T13:12:44;12.70;99.90
46898;DHT22;32646;50.958;6.258;2023-04-24T13:15:11;12.40;97.20
46898;DHT22;32646;50.958;6.258;2023-04-24T13:17:37;12.00;99.60
46898;DHT22;32646;50.958;6.258;2023-04-24T13:20:05;11.80;99.90
46898;DHT22;32646;50.958;6.258;2023-04-24T13:22:31;12.00;99.90
46898;DHT22;32646;50.958;6.258;2023-04-24T13:24:58;12.60;99.90
46898;DHT22;32646;50.958;6.258;2023-04-24T13:27:24;12.90;99.90
46898;DHT22;32646;50.958;6.258;2023-04-24T13:29:51;12.80;99.90
46898;DHT22;32646;50.958;6.258;2023-04-24T13:32:17;12.30;99.90
46898;DHT22;32646;50.958;6.258;2023-04-24T13:34:44;11.90;99.90
46898;DHT22;32646;50.958;6.258;2023-04-24T13:37:11;11.60;99.90
46898;DHT22;32646;50.958;6.258;2023-04-24T13:39:37;11.60;99.90
46898;DHT22;32646;50.958;6.258;2023-04-24T13:42:04;11.70;99.90
46898;DHT22;32646;50.958;6.258;2023-04-24T13:44:31;12.90;99.90
46898;DHT22;32646;50.958;6.258;2023-04-24T13:46:58;13.70;94.70
46898;DHT22;32646;50.958;6.258;2023-04-24T13:49:25;13.90;93.50
46898;DHT22;32646;50.958;6.258;2023-04-24T13:51:53;13.40;99.90
46898;DHT22;32646;50.958;6.258;2023-04-24T13:54:19;13.20;99.20
46898;DHT22;32646;50.958;6.258;2023-04-24T13:56:46;13.20;96.90
46898;DHT22;32646;50.958;6.258;2023-04-24T13:59:13;13.00;99.70
46898;DHT22;32646;50.958;6.258;2023-04-24T14:01:39;12.70;96.10
46898;DHT22;32646;50.958;6.258;2023-04-24T14:04:06;12.40;96.80
46898;DHT22;32646;50.958;6.258;2023-04-24T14:06:33;12.60;97.30
46898;DHT22;32646;50.958;6.258;2023-04-24T14:08:59;13.10;99.90
46898;DHT22;32646;50.958;6.258;2023-04-24T14:11:26;12.80;92.60
46898;DHT22;32646;50.958;6.258;2023-04-24T14:13:54;12.60;95.70
46898;DHT22;32646;50.958;6.258;2023-04-24T14:16:20;12.40;99.20
46898;DHT22;32646;50.958;6.258;2023-04-24T14:18:47;12.20;99.30
46898;DHT22;32646;50.958;6.258;2023-04-24T14:21:14;12.40;98.80
46898;DHT22;32646;50.958;6.258;2023-04-24T14:23:40;12.90;99.90
46898;DHT22;32646;50.958;6.258;2023-04-24T14:26:07;13.30;96.00
46898;DHT22;32646;50.958;6.258;2023-04-24T14:28:33;13.30;95.20
46898;DHT22;32646;50.958;6.258;2023-04-24T14:31:00;12.80;93.60
46898;DHT22;32646;50.958;6.258;2023-04-24T14:33:26;12.40;96.00
46898;DHT22;32646;50.958;6.258;2023-04-24T14:35:53;12.40;98.70
46898;DHT22;32646;50.958;6.258;2023-04-24T14:38:20;13.30;94.80
46898;DHT22;32646;50.958;6.258;2023-04-24T14:40:47;13.70;93.30
46898;DHT22;32646;50.958;6.258;2023-04-24T14:43:16;13.20;89.90
46898;DHT22;32646;50.958;6.258;2023-04-24T14:45:43;13.50;91.10
46898;DHT22;32646;50.958;6.258;2023-04-24T14:48:09;14.30;92.10
46898;DHT22;32646;50.958;6.258;2023-04-24T14:50:36;14.40;86.80
46898;DHT22;32646;50.958;6.258;2023-04-24T14:53:02;14.10;82.10
46898;DHT22;32646;50.958;6.258;2023-04-24T14:55:29;13.50;85.90
46898;DHT22;32646;50.958;6.258;2023-04-24T14:57:55;13.30;85.60
46898;DHT22;32646;50.958;6.258;2023-04-24T15:00:22;13.20;88.00
46898;DHT22;32646;50.958;6.258;2023-04-24T15:02:49;13.40;92.60
46898;DHT22;32646;50.958;6.258;2023-04-24T15:05:16;13.50;90.10
46898;DHT22;32646;50.958;6.258;2023-04-24T15:07:43;13.40;93.20
46898;DHT22;32646;50.958;6.258;2023-04-24T15:10:10;13.20;91.50
46898;DHT22;32646;50.958;6.258;2023-04-24T15:12:36;13.20;91.20
46898;DHT22;32646;50.958;6.258;2023-04-24T15:15:03;13.20;90.70
46898;DHT22;32646;50.958;6.258;2023-04-24T15:17:30;13.40;92.60
46898;DHT22;32646;50.958;6.258;2023-04-24T15:19:56;13.80;92.00
46898;DHT22;32646;50.958;6.258;2023-04-24T15:22:23;14.00;90.10
46898;DHT22;32646;50.958;6.258;2023-04-24T15:24:49;13.60;87.90
46898;DHT22;32646;50.958;6.258;2023-04-24T15:27:16;13.10;91.10
46898;DHT22;32646;50.958;6.258;2023-04-24T15:29:42;12.90;91.10
46898;DHT22;32646;50.958;6.258;2023-04-24T15:32:09;12.90;91.20
46898;DHT22;32646;50.958;6.258;2023-04-24T15:34:36;12.70;91.40
46898;DHT22;32646;50.958;6.258;2023-04-24T15:37:02;12.50;95.40
46898;DHT22;32646;50.958;6.258;2023-04-24T15:39:29;12.50;93.90
46898;DHT22;32646;50.958;6.258;2023-04-24T15:41:56;12.70;92.00
46898;DHT22;32646;50.958;6.258;2023-04-24T15:44:22;12.90;94.80
46898;DHT22;32646;50.958;6.258;2023-04-24T15:46:49;13.00;93.70
46898;DHT22;32646;50.958;6.258;2023-04-24T15:49:16;13.00;93.10
46898;DHT22;32646;50.958;6.258;2023-04-24T15:51:42;12.90;92.00
46898;DHT22;32646;50.958;6.258;2023-04-24T15:54:09;12.60;93.00
46898;DHT22;32646;50.958;6.258;2023-04-24T15:56:35;12.60;93.30
46898;DHT22;32646;50.958;6.258;2023-04-24T15:59:02;12.50;92.70